createdAt,value
2019-03-02T00:00:45.767Z,29.63
2019-03-02T00:03:13.946Z,28.37
2019-03-02T00:05:40.274Z,26.93
2019-03-02T00:08:06.850Z,29.07
2019-03-02T00:10:36.328Z,31.07
2019-03-02T00:13:03.857Z,29.17
2019-03-02T00:15:31.882Z,29.30
2019-03-02T00:17:59.979Z,28.93
2019-03-02T00:20:26.392Z,28.23
2019-03-02T00:22:52.657Z,31.57
2019-03-02T00:25:30.768Z,31.47
2019-03-02T00:27:59.236Z,30.60
2019-03-02T00:30:25.781Z,30.33
2019-03-02T00:32:52.013Z,30.80
2019-03-02T00:35:18.439Z,29.87
2019-03-02T00:37:57.829Z,28.50
2019-03-02T00:40:31.602Z,26.57
2019-03-02T00:43:09.556Z,29.23
2019-03-02T00:45:45.938Z,29.33
2019-03-02T00:48:13.671Z,29.97
2019-03-02T00:50:45.190Z,26.87
2019-03-02T00:53:11.433Z,26.73
2019-03-02T00:55:37.677Z,28.57
2019-03-02T00:58:06.082Z,27.17
2019-03-02T01:00:32.391Z,25.40
2019-03-02T01:02:58.976Z,30.07
2019-03-02T01:05:25.319Z,26.80
2019-03-02T01:07:52.229Z,28.13
2019-03-02T01:10:22.710Z,28.83
2019-03-02T01:15:37.093Z,28.83
2019-03-02T01:21:28.065Z,29.20
2019-03-02T01:23:59.714Z,28.30
2019-03-02T01:26:31.149Z,27.87
2019-03-02T01:28:58.089Z,27.23
2019-03-02T01:31:24.478Z,28.77
2019-03-02T01:33:51.181Z,27.70
2019-03-02T01:36:17.812Z,29.07
2019-03-02T01:38:44.447Z,28.47
2019-03-02T01:41:13.953Z,29.43
2019-03-02T01:43:41.561Z,29.40
2019-03-02T01:46:08.257Z,30.27
2019-03-02T01:48:34.654Z,27.80
2019-03-02T01:51:01.031Z,25.20
2019-03-02T01:53:27.596Z,26.73
2019-03-02T01:55:54.907Z,28.10
2019-03-02T01:58:24.590Z,27.17
2019-03-02T02:00:51.288Z,28.17
2019-03-02T02:03:18.863Z,26.30
2019-03-02T02:05:45.686Z,28.83
2019-03-02T02:08:12.087Z,27.27
2019-03-02T02:10:39.872Z,26.80
2019-03-02T02:13:07.212Z,27.13
2019-03-02T02:15:33.728Z,26.20
2019-03-02T02:18:00.343Z,27.33
2019-03-02T02:20:26.827Z,28.63
2019-03-02T02:22:53.483Z,28.33
2019-03-02T02:25:21.129Z,25.20
2019-03-02T02:27:49.458Z,26.53
2019-03-02T02:30:27.400Z,24.97
2019-03-02T02:33:03.050Z,26.87
2019-03-02T02:35:26.573Z,25.93
2019-03-02T02:37:52.958Z,26.27
2019-03-02T02:40:19.634Z,24.63
2019-03-02T02:42:46.356Z,26.70
2019-03-02T02:45:18.564Z,24.90
2019-03-02T02:47:52.006Z,25.93
2019-03-02T02:50:29.918Z,25.10
2019-03-02T02:52:49.517Z,26.13
2019-03-02T02:55:15.893Z,24.70
2019-03-02T02:57:45.956Z,25.87
2019-03-02T03:00:19.474Z,25.17
2019-03-02T03:02:54.121Z,23.90
2019-03-02T03:05:20.805Z,23.20
2019-03-02T03:07:53.479Z,26.00
2019-03-02T03:10:29.458Z,26.50
2019-03-02T03:13:01.878Z,24.07
2019-03-02T03:15:36.444Z,23.30
2019-03-02T03:17:56.996Z,26.07
2019-03-02T03:20:23.329Z,21.37
2019-03-02T03:22:49.613Z,20.53
2019-03-02T03:25:18.018Z,19.53
2019-03-02T03:27:47.653Z,19.43
2019-03-02T03:30:13.423Z,20.30
2019-03-02T03:32:54.555Z,19.57
2019-03-02T03:35:17.304Z,18.27
2019-03-02T03:37:51.385Z,19.07
2019-03-02T03:40:20.279Z,18.67
2019-03-02T03:42:44.525Z,18.80
2019-03-02T03:45:16.870Z,17.43
2019-03-02T03:47:43.227Z,17.77
2019-03-02T03:50:13.942Z,17.17
2019-03-02T03:52:43.960Z,14.97
2019-03-02T03:55:08.555Z,18.10
2019-03-02T03:57:35.011Z,17.93
2019-03-02T04:00:01.596Z,16.83
2019-03-02T04:02:35.446Z,18.00
2019-03-02T04:05:07.151Z,19.53
2019-03-02T04:07:32.927Z,19.77
2019-03-02T04:09:59.211Z,19.60
2019-03-02T04:12:25.888Z,18.97
2019-03-02T04:14:56.812Z,19.00
2019-03-02T04:17:21.184Z,19.30
2019-03-02T04:19:53.086Z,19.33
2019-03-02T04:22:25.363Z,16.23
2019-03-02T04:24:52.338Z,14.10
2019-03-02T04:27:18.687Z,15.53
2019-03-02T04:29:49.793Z,13.57
2019-03-02T04:32:17.963Z,14.93
2019-03-02T04:34:54.400Z,15.57
2019-03-02T04:37:20.370Z,14.83
2019-03-02T04:39:50.103Z,19.67
2019-03-02T04:42:18.166Z,20.03
2019-03-02T04:44:44.901Z,21.67
2019-03-02T04:47:11.194Z,21.57
2019-03-02T04:49:37.555Z,21.27
2019-03-02T04:52:04.215Z,21.57
2019-03-02T04:54:30.623Z,22.03
2019-03-02T04:56:58.862Z,21.90
2019-03-02T04:59:27.146Z,19.83
2019-03-02T05:02:02.388Z,21.73
2019-03-02T05:04:32.211Z,21.37
2019-03-02T05:06:58.244Z,22.43
2019-03-02T05:09:24.577Z,22.73
2019-03-02T05:11:51.029Z,22.33
2019-03-02T05:14:17.274Z,20.13
2019-03-02T05:16:43.526Z,21.07
2019-03-02T05:19:09.774Z,22.27
2019-03-02T05:21:36.079Z,19.37
2019-03-02T05:24:03.386Z,19.93
2019-03-02T05:26:37.662Z,19.43
2019-03-02T05:29:04.467Z,20.73
2019-03-02T05:31:30.739Z,22.00
2019-03-02T05:34:00.795Z,19.57
2019-03-02T05:36:26.833Z,20.83
2019-03-02T05:39:00.981Z,20.90
2019-03-02T05:41:29.661Z,19.30
2019-03-02T05:43:56.475Z,17.67
2019-03-02T05:46:25.529Z,18.73
2019-03-02T05:48:51.322Z,19.63
2019-03-02T05:51:18.701Z,19.67
2019-03-02T05:53:45.175Z,17.77
2019-03-02T05:56:11.433Z,20.33
2019-03-02T05:58:37.824Z,21.23
2019-03-02T06:01:19.510Z,18.60
2019-03-02T06:03:46.897Z,19.60
2019-03-02T06:06:13.330Z,19.33
2019-03-02T06:08:45.859Z,20.60
2019-03-02T06:11:13.166Z,19.50
2019-03-02T06:13:43.659Z,20.37
2019-03-02T06:16:10.007Z,18.43
2019-03-02T06:18:37.444Z,17.60
2019-03-02T06:21:07.731Z,18.63
2019-03-02T06:23:33.531Z,17.97
2019-03-02T06:26:06.221Z,17.80
2019-03-02T06:28:34.797Z,18.97
2019-03-02T06:31:01.061Z,20.03
2019-03-02T06:33:34.484Z,18.53
2019-03-02T06:36:12.565Z,17.77
2019-03-02T06:38:38.949Z,18.17
2019-03-02T06:41:12.211Z,17.63
2019-03-02T06:43:38.909Z,18.73
2019-03-02T06:46:08.350Z,16.60
2019-03-02T06:48:45.174Z,17.03
2019-03-02T06:51:12.693Z,14.23
2019-03-02T06:53:45.487Z,16.83
2019-03-02T06:56:22.331Z,19.63
2019-03-02T06:58:54.830Z,18.10
2019-03-02T07:01:24.923Z,15.40
2019-03-02T07:03:49.819Z,20.37
2019-03-02T07:06:16.485Z,17.57
2019-03-02T07:08:44.126Z,17.40
2019-03-02T07:11:10.450Z,18.77
2019-03-02T07:13:37.096Z,17.00
2019-03-02T07:16:03.355Z,186.40
2019-03-02T07:18:42.435Z,54.47
2019-03-02T07:21:08.819Z,29.40
2019-03-02T07:23:35.280Z,22.43
2019-03-02T07:26:01.899Z,18.63
2019-03-02T07:28:28.386Z,20.67
2019-03-02T07:30:54.640Z,18.70
2019-03-02T07:33:21.329Z,18.00
2019-03-02T07:35:47.970Z,17.17
2019-03-02T07:38:20.342Z,17.50
2019-03-02T07:40:52.459Z,19.17
2019-03-02T07:43:19.928Z,19.93
2019-03-02T07:45:50.627Z,22.30
2019-03-02T07:48:16.998Z,20.70
2019-03-02T07:50:46.978Z,19.57
2019-03-02T07:53:24.923Z,19.93
2019-03-02T07:55:57.310Z,20.63
2019-03-02T07:58:20.867Z,24.03
2019-03-02T08:00:47.884Z,24.17
2019-03-02T08:03:14.341Z,22.23
2019-03-02T08:05:41.179Z,22.83
2019-03-02T08:08:13.970Z,21.63
2019-03-02T08:10:40.166Z,18.80
2019-03-02T08:13:06.857Z,18.53
2019-03-02T08:15:33.546Z,18.17
2019-03-02T08:17:59.967Z,17.90
2019-03-02T08:20:26.325Z,17.93
2019-03-02T08:22:54.630Z,17.57
2019-03-02T08:25:21.135Z,16.33
2019-03-02T08:27:47.828Z,22.03
2019-03-02T08:30:16.406Z,22.03
2019-03-02T08:32:42.846Z,20.57
2019-03-02T08:35:11.478Z,19.63
2019-03-02T08:37:37.966Z,22.57
2019-03-02T08:40:06.812Z,20.90
2019-03-02T08:42:33.170Z,21.23
2019-03-02T08:44:59.827Z,21.47
2019-03-02T08:47:26.098Z,20.53
2019-03-02T08:49:52.634Z,22.07
2019-03-02T08:52:18.982Z,18.10
2019-03-02T08:54:45.618Z,19.10
2019-03-02T08:57:11.859Z,17.50
2019-03-02T08:59:38.843Z,17.70
2019-03-02T09:02:05.382Z,17.67
2019-03-02T09:04:33.096Z,18.37
2019-03-02T09:06:59.457Z,17.63
2019-03-02T09:09:26.153Z,17.73
2019-03-02T09:11:52.825Z,21.87
2019-03-02T09:14:19.205Z,19.97
2019-03-02T09:16:45.548Z,21.97
2019-03-02T09:19:11.796Z,25.33
2019-03-02T09:21:39.402Z,22.83
2019-03-02T09:24:09.409Z,21.80
2019-03-02T09:26:34.225Z,22.67
2019-03-02T09:29:00.510Z,25.33
2019-03-02T09:31:27.178Z,22.33
2019-03-02T09:33:53.591Z,22.83
2019-03-02T09:36:20.406Z,18.87
2019-03-02T09:38:46.772Z,21.87
2019-03-02T09:41:13.169Z,21.27
2019-03-02T09:43:39.454Z,20.73
2019-03-02T09:46:07.491Z,21.17
2019-03-02T09:48:35.101Z,19.37
2019-03-02T09:51:01.515Z,20.10
2019-03-02T09:53:27.875Z,20.00
2019-03-02T09:55:56.195Z,19.97
2019-03-02T09:58:24.276Z,21.50
2019-03-02T10:00:50.951Z,28.53
2019-03-02T10:03:17.313Z,23.17
2019-03-02T10:05:46.515Z,21.67
2019-03-02T10:08:13.309Z,22.57
2019-03-02T10:10:40.534Z,21.23
2019-03-02T10:13:08.214Z,20.47
2019-03-02T10:15:34.558Z,19.60
2019-03-02T10:18:01.146Z,20.37
2019-03-02T10:20:27.745Z,18.73
2019-03-02T10:22:54.253Z,23.97
2019-03-02T10:25:20.719Z,18.70
2019-03-02T10:27:47.350Z,19.40
2019-03-02T10:30:22.154Z,17.60
2019-03-02T10:32:51.891Z,15.67
2019-03-02T10:35:18.189Z,17.50
2019-03-02T10:37:44.760Z,18.87
2019-03-02T10:40:22.976Z,17.50
2019-03-02T10:42:49.062Z,16.97
2019-03-02T10:45:16.766Z,16.57
2019-03-02T10:47:44.527Z,17.57
2019-03-02T10:50:13.944Z,18.20
2019-03-02T10:52:40.330Z,18.20
2019-03-02T10:55:12.171Z,17.87
2019-03-02T10:57:39.204Z,15.67
2019-03-02T11:00:17.692Z,16.20
2019-03-02T11:02:44.438Z,14.90
2019-03-02T11:05:21.122Z,15.53
2019-03-02T11:07:50.587Z,14.43
2019-03-02T11:10:19.678Z,13.77
2019-03-02T11:13:02.892Z,14.60
2019-03-02T11:15:31.397Z,13.90
2019-03-02T11:18:02.385Z,14.03
2019-03-02T11:20:36.450Z,15.10
2019-03-02T11:23:05.126Z,13.43
2019-03-02T11:25:37.439Z,13.50
2019-03-02T11:28:08.863Z,15.70
2019-03-02T11:30:44.552Z,17.10
2019-03-02T11:33:20.356Z,20.07
2019-03-02T11:35:55.125Z,14.80
2019-03-02T11:38:29.583Z,16.03
2019-03-02T11:40:57.999Z,15.13
2019-03-02T11:43:29.046Z,13.37
2019-03-02T11:46:01.446Z,14.53
2019-03-02T11:48:35.875Z,13.60
2019-03-02T11:51:04.333Z,12.57
2019-03-02T11:53:32.614Z,14.23
2019-03-02T11:56:25.047Z,11.97
2019-03-02T11:58:51.678Z,11.90
2019-03-02T12:01:34.107Z,12.93
2019-03-02T12:04:04.594Z,11.77
2019-03-02T12:06:41.007Z,12.33
2019-03-02T12:09:25.506Z,13.57
2019-03-02T12:11:53.763Z,11.37
2019-03-02T12:14:22.056Z,13.03
2019-03-02T12:16:53.367Z,12.03
2019-03-02T12:19:21.564Z,12.53
2019-03-02T12:21:50.017Z,14.93
2019-03-02T12:24:22.336Z,13.93
2019-03-02T12:27:07.630Z,27.53
2019-03-02T12:29:41.348Z,13.07
2019-03-02T12:32:09.047Z,10.70
2019-03-02T12:34:54.973Z,10.80
2019-03-02T12:37:37.464Z,11.07
2019-03-02T12:40:21.160Z,11.30
2019-03-02T12:42:58.517Z,10.17
2019-03-02T12:45:29.967Z,9.37
2019-03-02T12:48:03.342Z,10.17
2019-03-02T12:50:38.058Z,9.67
2019-03-02T12:53:24.498Z,9.13
2019-03-02T12:56:08.107Z,10.00
2019-03-02T12:58:42.486Z,9.37
2019-03-02T13:01:23.155Z,9.17
2019-03-02T13:03:57.615Z,10.37
2019-03-02T13:06:52.774Z,10.23
2019-03-02T13:09:36.947Z,8.67
2019-03-02T13:12:18.374Z,9.90
2019-03-02T13:14:52.710Z,9.73
2019-03-02T13:17:22.496Z,9.60
2019-03-02T13:20:03.803Z,9.77
2019-03-02T13:22:48.835Z,9.27
2019-03-02T13:25:20.450Z,9.97
2019-03-02T13:27:56.849Z,9.57
2019-03-02T13:30:43.223Z,9.30
2019-03-02T13:33:11.451Z,8.67
2019-03-02T13:35:42.706Z,9.80
2019-03-02T13:38:25.648Z,9.30
2019-03-02T13:40:56.614Z,8.93
2019-03-02T13:43:30.833Z,10.83
2019-03-02T13:46:15.478Z,9.40
2019-03-02T13:48:46.767Z,10.87
2019-03-02T13:51:31.796Z,9.40
2019-03-02T13:54:08.694Z,9.63
2019-03-02T13:56:53.590Z,11.03
2019-03-02T13:59:30.874Z,10.73
2019-03-02T14:02:02.109Z,10.47
2019-03-02T14:04:42.647Z,9.57
2019-03-02T14:07:20.142Z,9.97
2019-03-02T14:09:51.506Z,10.23
2019-03-02T14:12:23.171Z,10.50
2019-03-02T14:15:09.415Z,9.53
2019-03-02T14:17:54.268Z,9.53
2019-03-02T14:20:24.798Z,9.00
2019-03-02T14:22:55.850Z,10.00
2019-03-02T14:25:33.074Z,9.23
2019-03-02T14:28:12.143Z,9.63
2019-03-02T14:30:42.690Z,9.63
2019-03-02T14:33:10.854Z,9.50
2019-03-02T14:35:39.140Z,8.93
2019-03-02T14:38:12.247Z,8.07
2019-03-02T14:40:56.942Z,9.80
2019-03-02T14:43:31.086Z,9.50
2019-03-02T14:45:59.338Z,9.10
2019-03-02T14:48:39.541Z,10.53
2019-03-02T14:51:17.015Z,9.97
2019-03-02T14:53:46.997Z,11.20
2019-03-02T14:56:15.515Z,9.63
2019-03-02T14:59:01.858Z,9.80
2019-03-02T15:01:36.085Z,9.80
2019-03-02T15:04:12.066Z,8.57
2019-03-02T15:06:44.370Z,10.03
2019-03-02T15:09:28.476Z,9.47
2019-03-02T15:11:58.593Z,10.23
2019-03-02T15:14:26.774Z,9.27
2019-03-02T15:17:03.977Z,9.23
2019-03-02T15:19:32.497Z,9.97
2019-03-02T15:22:00.806Z,40.43
2019-03-02T15:24:33.014Z,28.03
2019-03-02T15:27:12.700Z,38.63
2019-03-02T15:29:40.834Z,21.37
2019-03-02T15:32:09.454Z,13.90
2019-03-02T15:34:53.965Z,12.27
2019-03-02T15:37:24.227Z,10.10
2019-03-02T15:40:12.330Z,10.17
2019-03-02T15:42:47.332Z,11.40
2019-03-02T15:45:18.842Z,10.07
2019-03-02T15:47:54.146Z,11.90
2019-03-02T15:50:34.534Z,11.63
2019-03-02T15:53:08.906Z,9.63
2019-03-02T15:55:49.434Z,10.30
2019-03-02T15:58:35.748Z,10.03
2019-03-02T16:01:03.994Z,8.77
2019-03-02T16:03:44.194Z,8.07
2019-03-02T16:06:19.695Z,10.37
2019-03-02T16:09:05.029Z,8.93
2019-03-02T16:11:35.669Z,9.33
2019-03-02T16:14:09.934Z,9.50
2019-03-02T16:16:47.233Z,10.03
2019-03-02T16:19:15.431Z,9.47
2019-03-02T16:22:04.849Z,9.80
2019-03-02T16:24:42.447Z,11.90
2019-03-02T16:27:17.002Z,11.27
2019-03-02T16:29:52.692Z,11.03
2019-03-02T16:32:27.614Z,9.97
2019-03-02T16:35:12.313Z,10.20
2019-03-02T16:37:43.415Z,10.67
2019-03-02T16:40:24.205Z,10.97
2019-03-02T16:43:07.606Z,10.90
2019-03-02T16:45:48.199Z,8.80
2019-03-02T16:48:16.602Z,10.80
2019-03-02T16:50:44.790Z,20.87
2019-03-02T16:53:22.700Z,16.77
2019-03-02T16:55:55.921Z,15.17
2019-03-02T16:58:30.616Z,14.47
2019-03-02T17:01:06.062Z,12.33
2019-03-02T17:03:42.784Z,12.30
2019-03-02T17:06:26.923Z,10.37
2019-03-02T17:08:56.226Z,10.57
2019-03-02T17:11:41.404Z,10.60
2019-03-02T17:14:10.194Z,10.20
2019-03-02T17:16:55.377Z,9.70
2019-03-02T17:19:28.387Z,9.90
2019-03-02T17:21:57.499Z,9.47
2019-03-02T17:24:52.471Z,12.45
2019-03-02T17:27:27.104Z,9.20
2019-03-02T17:30:01.705Z,7.73
2019-03-02T17:32:30.239Z,8.43
2019-03-02T17:35:01.206Z,7.87
2019-03-02T17:37:32.487Z,8.43
2019-03-02T17:40:17.866Z,7.97
2019-03-02T17:42:46.497Z,8.83
2019-03-02T17:45:24.238Z,11.37
2019-03-02T17:47:52.507Z,18.60
2019-03-02T17:50:37.094Z,18.47
2019-03-02T17:53:12.173Z,18.47
2019-03-02T17:55:43.425Z,21.37
2019-03-02T17:58:20.715Z,26.10
2019-03-02T18:01:04.165Z,30.90
2019-03-02T18:03:35.825Z,26.67
2019-03-02T18:06:04.274Z,30.77
2019-03-02T18:08:44.793Z,36.20
2019-03-02T18:11:14.870Z,44.70
2019-03-02T18:13:50.373Z,54.70
2019-03-02T18:16:37.824Z,46.93
2019-03-02T18:19:07.217Z,16.83
2019-03-02T18:21:34.772Z,10.07
2019-03-02T18:24:01.210Z,8.83
2019-03-02T18:26:27.604Z,9.10
2019-03-02T18:28:55.023Z,10.47
2019-03-02T18:31:21.856Z,10.17
2019-03-02T18:33:50.170Z,8.83
2019-03-02T18:36:16.915Z,7.97
2019-03-02T18:38:44.609Z,8.00
2019-03-02T18:41:12.348Z,8.67
2019-03-02T18:43:40.981Z,7.60
2019-03-02T18:46:12.111Z,7.57
2019-03-02T18:52:09.895Z,7.30
2019-03-02T18:54:36.246Z,7.40
2019-03-02T18:57:02.622Z,6.13
2019-03-02T18:59:28.890Z,6.20
2019-03-02T19:01:55.300Z,7.73
2019-03-02T19:04:24.890Z,5.83
2019-03-02T19:06:51.438Z,5.17
2019-03-02T19:09:17.904Z,5.27
2019-03-02T19:11:44.624Z,5.10
2019-03-02T19:14:10.981Z,5.07
2019-03-02T19:16:37.725Z,4.07
2019-03-02T19:19:04.354Z,4.33
2019-03-02T19:21:31.108Z,4.53
2019-03-02T19:23:57.630Z,4.40
2019-03-02T19:26:26.536Z,4.10
2019-03-02T19:28:54.302Z,3.90
2019-03-02T19:31:21.335Z,3.53
2019-03-02T19:33:48.215Z,3.83
2019-03-02T19:36:14.599Z,3.80
2019-03-02T19:38:41.321Z,4.27
2019-03-02T19:41:08.158Z,3.90
2019-03-02T19:43:35.003Z,4.30
2019-03-02T19:46:02.597Z,4.80
2019-03-02T19:48:29.265Z,4.87
2019-03-02T19:50:58.269Z,4.10
2019-03-02T19:53:24.929Z,3.70
2019-03-02T19:55:51.477Z,3.20
2019-03-02T19:58:18.215Z,3.90
2019-03-02T20:00:46.983Z,3.37
2019-03-02T20:03:14.486Z,4.07
2019-03-02T20:05:41.008Z,3.37
2019-03-02T20:08:07.815Z,3.43
2019-03-02T20:10:34.605Z,2.93
2019-03-02T20:13:01.240Z,3.13
2019-03-02T20:15:28.351Z,3.30
2019-03-02T20:17:55.352Z,3.00
2019-03-02T20:20:22.287Z,2.87
2019-03-02T20:22:48.847Z,3.03
2019-03-02T20:25:18.173Z,3.10
2019-03-02T20:27:44.699Z,2.90
2019-03-02T20:30:18.267Z,2.90
2019-03-02T20:32:45.104Z,2.60
2019-03-02T20:35:14.005Z,3.00
2019-03-02T20:37:40.772Z,2.40
2019-03-02T20:40:11.036Z,3.10
2019-03-02T20:42:37.782Z,3.20
2019-03-02T20:45:10.194Z,3.73
2019-03-02T20:47:36.913Z,3.17
2019-03-02T20:50:06.713Z,3.23
2019-03-02T20:52:33.280Z,2.57
2019-03-02T20:55:00.046Z,2.30
2019-03-02T20:57:26.574Z,3.03
2019-03-02T20:59:53.369Z,2.57
2019-03-02T21:02:20.321Z,2.63
2019-03-02T21:04:48.068Z,2.57
2019-03-02T21:07:15.806Z,2.30
2019-03-02T21:09:42.678Z,3.03
2019-03-02T21:12:09.049Z,2.63
2019-03-02T21:14:35.801Z,2.60
2019-03-02T21:17:02.508Z,3.43
2019-03-02T21:19:31.660Z,2.53
2019-03-02T21:21:58.856Z,2.40
2019-03-02T21:24:25.393Z,2.40
2019-03-02T21:26:52.029Z,2.47
2019-03-02T21:29:18.981Z,2.57
2019-03-02T21:31:46.504Z,2.73
2019-03-02T21:34:14.361Z,2.10
2019-03-02T21:36:41.780Z,2.50
2019-03-02T21:39:10.248Z,2.37
2019-03-02T21:41:38.978Z,2.37
2019-03-02T21:44:05.379Z,2.87
2019-03-02T21:46:32.211Z,2.47
2019-03-02T21:49:00.099Z,2.33
2019-03-02T21:51:26.787Z,2.77
2019-03-02T21:53:54.404Z,2.63
2019-03-02T21:56:20.811Z,2.83
2019-03-02T21:58:50.070Z,2.20
2019-03-02T22:01:16.748Z,3.20
2019-03-02T22:03:45.424Z,1.97
2019-03-02T22:06:12.143Z,2.30
2019-03-02T22:08:38.620Z,2.73
2019-03-02T22:11:09.959Z,2.60
2019-03-02T22:13:36.684Z,2.13
2019-03-02T22:16:03.570Z,2.23
2019-03-02T22:18:30.158Z,2.43
2019-03-02T22:21:00.648Z,2.77
2019-03-02T22:23:27.437Z,2.87
2019-03-02T22:25:58.276Z,2.17
2019-03-02T22:28:25.848Z,2.40
2019-03-02T22:30:53.575Z,2.67
2019-03-02T22:33:21.344Z,2.10
2019-03-02T22:35:48.837Z,2.70
2019-03-02T22:38:15.412Z,2.70
2019-03-02T22:40:43.301Z,2.23
2019-03-02T22:43:10.280Z,3.60
2019-03-02T22:45:39.131Z,2.27
2019-03-02T22:48:07.022Z,2.10
2019-03-02T22:50:34.751Z,2.33
2019-03-02T22:53:01.230Z,2.30
2019-03-02T22:55:28.105Z,1.90
2019-03-02T22:58:02.310Z,2.00
2019-03-02T23:00:45.915Z,1.70
2019-03-02T23:03:13.764Z,1.73
2019-03-02T23:05:40.518Z,2.10
2019-03-02T23:08:07.201Z,2.00
2019-03-02T23:10:34.092Z,2.10
2019-03-02T23:13:00.827Z,2.13
2019-03-02T23:15:27.920Z,1.83
2019-03-02T23:17:54.658Z,1.73
2019-03-02T23:20:21.493Z,1.80
2019-03-02T23:22:48.328Z,2.20
2019-03-02T23:25:18.219Z,2.47
2019-03-02T23:27:46.080Z,1.47
2019-03-02T23:30:17.743Z,1.50
2019-03-02T23:32:44.374Z,1.77
2019-03-02T23:35:11.301Z,2.10
2019-03-02T23:37:37.844Z,1.70
2019-03-02T23:40:09.635Z,1.60
2019-03-02T23:42:36.225Z,1.60
2019-03-02T23:45:07.043Z,1.80
2019-03-02T23:47:33.528Z,2.00
2019-03-02T23:50:00.030Z,2.10
2019-03-02T23:52:27.996Z,1.87
2019-03-02T23:54:54.461Z,2.07
2019-03-02T23:57:21.196Z,1.60
2019-03-02T23:59:47.914Z,1.70
